sensor_id;sensor_type;location;lat;lon;timestamp;pressure;altitude;pressure_sealevel;temperature;humidity
66479;BME280;53294;47.912;13.526;2023-01-29T00:00:20;97037.03;;;1.63;65.33
66479;BME280;53294;47.912;13.526;2023-01-29T00:02:47;97045.63;;;1.58;65.65
66479;BME280;53294;47.912;13.526;2023-01-29T00:05:14;97035.94;;;1.71;65.14
66479;BME280;53294;47.912;13.526;2023-01-29T00:07:54;97041.03;;;1.47;66.12
66479;BME280;53294;47.912;13.526;2023-01-29T00:10:22;97047.53;;;1.51;65.76
66479;BME280;53294;47.912;13.526;2023-01-29T00:12:49;97045.91;;;1.50;66.14
66479;BME280;53294;47.912;13.526;2023-01-29T00:15:17;97046.41;;;1.40;66.13
66479;BME280;53294;47.912;13.526;2023-01-29T00:17:44;97039.88;;;1.43;66.24
66479;BME280;53294;47.912;13.526;2023-01-29T00:20:11;97038.31;;;1.60;65.36
66479;BME280;53294;47.912;13.526;2023-01-29T00:22:37;97030.50;;;1.66;65.20
66479;BME280;53294;47.912;13.526;2023-01-29T00:25:04;97038.03;;;1.69;65.18
66479;BME280;53294;47.912;13.526;2023-01-29T00:27:31;97043.84;;;1.52;65.61
66479;BME280;53294;47.912;13.526;2023-01-29T00:29:58;97044.75;;;1.46;66.03
66479;BME280;53294;47.912;13.526;2023-01-29T00:32:39;97034.03;;;1.59;65.51
66479;BME280;53294;47.912;13.526;2023-01-29T00:35:07;97043.16;;;1.38;66.52
66479;BME280;53294;47.912;13.526;2023-01-29T00:37:34;97047.63;;;1.38;66.37
66479;BME280;53294;47.912;13.526;2023-01-29T00:40:01;97045.59;;;1.40;66.12
66479;BME280;53294;47.912;13.526;2023-01-29T00:42:27;97051.25;;;1.43;65.86
66479;BME280;53294;47.912;13.526;2023-01-29T00:45:13;97050.03;;;1.46;65.78
66479;BME280;53294;47.912;13.526;2023-01-29T00:47:40;97055.56;;;1.38;66.24
66479;BME280;53294;47.912;13.526;2023-01-29T00:50:09;97048.84;;;1.42;65.89
66479;BME280;53294;47.912;13.526;2023-01-29T00:52:36;97049.13;;;1.52;65.65
66479;BME280;53294;47.912;13.526;2023-01-29T00:55:04;97044.97;;;1.63;65.15
66479;BME280;53294;47.912;13.526;2023-01-29T00:57:32;97043.31;;;1.69;64.91
66479;BME280;53294;47.912;13.526;2023-01-29T00:59:59;97049.81;;;1.73;65.14
66479;BME280;53294;47.912;13.526;2023-01-29T01:02:26;97052.25;;;1.74;65.10
66479;BME280;53294;47.912;13.526;2023-01-29T01:05:13;97052.59;;;1.78;65.07
66479;BME280;53294;47.912;13.526;2023-01-29T01:07:50;97062.78;;;1.56;65.38
66479;BME280;53294;47.912;13.526;2023-01-29T01:10:23;97067.38;;;1.67;65.42
66479;BME280;53294;47.912;13.526;2023-01-29T01:12:54;97062.19;;;1.79;65.24
66479;BME280;53294;47.912;13.526;2023-01-29T01:15:23;97063.91;;;1.67;65.19
66479;BME280;53294;47.912;13.526;2023-01-29T01:17:52;97058.84;;;1.65;65.03
66479;BME280;53294;47.912;13.526;2023-01-29T01:20:19;97067.16;;;1.69;65.36
66479;BME280;53294;47.912;13.526;2023-01-29T01:22:46;97071.47;;;1.63;65.33
66479;BME280;53294;47.912;13.526;2023-01-29T01:25:13;97063.44;;;1.19;66.44
66479;BME280;53294;47.912;13.526;2023-01-29T01:27:40;97067.88;;;1.25;66.30
66479;BME280;53294;47.912;13.526;2023-01-29T01:30:12;97070.00;;;1.42;65.94
66479;BME280;53294;47.912;13.526;2023-01-29T01:32:41;97063.63;;;1.24;66.17
66479;BME280;53294;47.912;13.526;2023-01-29T01:35:09;97067.00;;;1.06;66.84
66479;BME280;53294;47.912;13.526;2023-01-29T01:37:36;97068.16;;;1.17;66.23
66479;BME280;53294;47.912;13.526;2023-01-29T01:40:07;97063.63;;;1.24;66.21
66479;BME280;53294;47.912;13.526;2023-01-29T01:42:39;97065.41;;;1.31;65.77
66479;BME280;53294;47.912;13.526;2023-01-29T01:45:13;97065.22;;;1.25;66.38
66479;BME280;53294;47.912;13.526;2023-01-29T01:47:46;97065.41;;;0.99;66.88
66479;BME280;53294;47.912;13.526;2023-01-29T01:50:34;97063.91;;;0.71;67.66
66479;BME280;53294;47.912;13.526;2023-01-29T01:53:08;97077.16;;;-0.14;71.33
66479;BME280;53294;47.912;13.526;2023-01-29T01:55:45;97080.38;;;0.01;70.66
66479;BME280;53294;47.912;13.526;2023-01-29T01:58:18;97076.97;;;0.66;67.86
66479;BME280;53294;47.912;13.526;2023-01-29T02:00:46;97071.53;;;0.93;67.16
66479;BME280;53294;47.912;13.526;2023-01-29T02:03:13;97065.75;;;1.09;66.19
66479;BME280;53294;47.912;13.526;2023-01-29T02:05:59;97074.63;;;1.21;65.73
66479;BME280;53294;47.912;13.526;2023-01-29T02:09:01;97068.81;;;1.38;65.58
66479;BME280;53294;47.912;13.526;2023-01-29T02:11:49;97069.34;;;1.21;65.69
66479;BME280;53294;47.912;13.526;2023-01-29T02:14:16;97071.31;;;1.33;65.79
66479;BME280;53294;47.912;13.526;2023-01-29T02:16:43;97068.38;;;1.41;65.63
66479;BME280;53294;47.912;13.526;2023-01-29T02:22:07;97071.22;;;1.46;65.52
66479;BME280;53294;47.912;13.526;2023-01-29T02:24:47;97070.53;;;1.51;65.41
66479;BME280;53294;47.912;13.526;2023-01-29T02:30:36;97063.44;;;1.51;65.20
66479;BME280;53294;47.912;13.526;2023-01-29T02:33:22;97062.38;;;1.27;66.33
66479;BME280;53294;47.912;13.526;2023-01-29T02:44:18;97066.06;;;1.26;66.41
66479;BME280;53294;47.912;13.526;2023-01-29T02:46:56;97071.66;;;1.43;65.90
66479;BME280;53294;47.912;13.526;2023-01-29T02:49:57;97073.59;;;1.54;65.69
66479;BME280;53294;47.912;13.526;2023-01-29T02:52:30;97086.69;;;1.49;65.93
66479;BME280;53294;47.912;13.526;2023-01-29T02:55:06;97087.69;;;1.16;66.59
66479;BME280;53294;47.912;13.526;2023-01-29T02:57:38;97090.31;;;1.16;66.62
66479;BME280;53294;47.912;13.526;2023-01-29T03:00:13;97094.97;;;1.21;66.47
66479;BME280;53294;47.912;13.526;2023-01-29T03:02:46;97098.25;;;1.23;66.46
66479;BME280;53294;47.912;13.526;2023-01-29T03:05:20;97090.59;;;1.08;66.61
66479;BME280;53294;47.912;13.526;2023-01-29T03:07:52;97094.47;;;0.67;67.98
66479;BME280;53294;47.912;13.526;2023-01-29T03:10:55;97096.59;;;0.83;67.74
66479;BME280;53294;47.912;13.526;2023-01-29T03:13:29;97093.50;;;1.00;67.13
66479;BME280;53294;47.912;13.526;2023-01-29T03:16:08;97090.75;;;1.13;66.60
66479;BME280;53294;47.912;13.526;2023-01-29T03:18:40;97090.13;;;1.18;66.32
66479;BME280;53294;47.912;13.526;2023-01-29T03:21:24;97097.78;;;1.33;66.25
66479;BME280;53294;47.912;13.526;2023-01-29T03:24:14;97094.13;;;1.27;66.03
66479;BME280;53294;47.912;13.526;2023-01-29T03:27:04;97092.91;;;1.30;66.27
66479;BME280;53294;47.912;13.526;2023-01-29T03:29:52;97082.25;;;1.43;65.81
66479;BME280;53294;47.912;13.526;2023-01-29T03:32:38;97083.47;;;1.40;65.59
66479;BME280;53294;47.912;13.526;2023-01-29T03:35:07;97089.31;;;1.17;66.35
66479;BME280;53294;47.912;13.526;2023-01-29T03:37:43;97095.28;;;1.06;66.64
66479;BME280;53294;47.912;13.526;2023-01-29T03:40:12;97094.56;;;1.24;66.21
66479;BME280;53294;47.912;13.526;2023-01-29T03:43:04;97090.66;;;1.58;65.87
66479;BME280;53294;47.912;13.526;2023-01-29T03:45:43;97092.28;;;1.59;65.12
66479;BME280;53294;47.912;13.526;2023-01-29T03:51:13;97083.63;;;1.71;65.24
66479;BME280;53294;47.912;13.526;2023-01-29T03:53:50;97081.25;;;1.63;65.48
66479;BME280;53294;47.912;13.526;2023-01-29T03:56:38;97081.59;;;1.73;65.17
66479;BME280;53294;47.912;13.526;2023-01-29T03:59:29;97058.34;;;1.75;65.11
66479;BME280;53294;47.912;13.526;2023-01-29T04:02:21;97054.25;;;1.79;65.01
66479;BME280;53294;47.912;13.526;2023-01-29T04:05:00;97051.53;;;1.60;65.13
66479;BME280;53294;47.912;13.526;2023-01-29T04:07:29;97044.47;;;1.22;66.76
66479;BME280;53294;47.912;13.526;2023-01-29T04:10:10;97049.97;;;1.28;66.69
66479;BME280;53294;47.912;13.526;2023-01-29T04:12:43;97051.41;;;1.23;66.90
66479;BME280;53294;47.912;13.526;2023-01-29T04:15:13;97046.16;;;1.17;67.06
66479;BME280;53294;47.912;13.526;2023-01-29T04:17:44;97046.94;;;0.85;68.41
66479;BME280;53294;47.912;13.526;2023-01-29T04:20:12;97049.16;;;0.95;67.83
66479;BME280;53294;47.912;13.526;2023-01-29T04:22:44;97047.81;;;1.11;67.24
66479;BME280;53294;47.912;13.526;2023-01-29T04:25:15;97036.47;;;1.04;67.26
66479;BME280;53294;47.912;13.526;2023-01-29T04:30:51;97038.41;;;0.38;69.36
66479;BME280;53294;47.912;13.526;2023-01-29T04:36:20;97040.09;;;0.26;69.73
66479;BME280;53294;47.912;13.526;2023-01-29T04:42:34;97028.34;;;0.15;70.36
66479;BME280;53294;47.912;13.526;2023-01-29T04:50:15;97029.03;;;0.49;68.93
66479;BME280;53294;47.912;13.526;2023-01-29T04:55:35;97033.22;;;0.11;70.30
66479;BME280;53294;47.912;13.526;2023-01-29T04:58:40;97033.03;;;0.06;70.44
66479;BME280;53294;47.912;13.526;2023-01-29T05:01:13;97040.50;;;0.23;69.74
66479;BME280;53294;47.912;13.526;2023-01-29T05:03:44;97044.00;;;0.10;70.27
66479;BME280;53294;47.912;13.526;2023-01-29T05:06:12;97046.22;;;0.06;70.75
66479;BME280;53294;47.912;13.526;2023-01-29T05:08:40;97047.63;;;0.15;70.18
66479;BME280;53294;47.912;13.526;2023-01-29T05:11:07;97045.75;;;0.29;69.81
66479;BME280;53294;47.912;13.526;2023-01-29T05:13:37;97042.28;;;0.35;69.53
66479;BME280;53294;47.912;13.526;2023-01-29T05:16:14;97046.91;;;0.53;68.89
66479;BME280;53294;47.912;13.526;2023-01-29T05:18:43;97042.84;;;0.58;68.37
66479;BME280;53294;47.912;13.526;2023-01-29T05:21:10;97055.03;;;0.52;68.54
66479;BME280;53294;47.912;13.526;2023-01-29T05:23:37;97059.56;;;0.38;68.89
66479;BME280;53294;47.912;13.526;2023-01-29T05:26:04;97054.56;;;0.03;70.65
66479;BME280;53294;47.912;13.526;2023-01-29T05:28:31;97054.53;;;0.16;70.36
66479;BME280;53294;47.912;13.526;2023-01-29T05:30:57;97058.44;;;0.07;70.54
66479;BME280;53294;47.912;13.526;2023-01-29T05:33:29;97054.38;;;0.11;70.56
66479;BME280;53294;47.912;13.526;2023-01-29T05:35:59;97055.56;;;0.15;70.20
66479;BME280;53294;47.912;13.526;2023-01-29T05:38:26;97048.66;;;0.08;70.72
66479;BME280;53294;47.912;13.526;2023-01-29T05:40:52;97056.44;;;-0.17;72.09
66479;BME280;53294;47.912;13.526;2023-01-29T05:43:21;97056.66;;;-0.12;71.49
66479;BME280;53294;47.912;13.526;2023-01-29T05:45:53;97057.69;;;-0.33;72.55
66479;BME280;53294;47.912;13.526;2023-01-29T05:48:20;97049.38;;;-0.37;72.29
66479;BME280;53294;47.912;13.526;2023-01-29T05:50:47;97059.91;;;-0.24;72.08
66479;BME280;53294;47.912;13.526;2023-01-29T05:53:14;97056.06;;;-0.28;72.14
66479;BME280;53294;47.912;13.526;2023-01-29T05:55:45;97066.00;;;-0.30;72.26
66479;BME280;53294;47.912;13.526;2023-01-29T05:58:12;97066.00;;;-0.50;73.20
66479;BME280;53294;47.912;13.526;2023-01-29T06:00:40;97070.25;;;-0.42;72.57
66479;BME280;53294;47.912;13.526;2023-01-29T06:03:06;97067.84;;;-0.50;72.95
66479;BME280;53294;47.912;13.526;2023-01-29T06:05:36;97064.78;;;-0.47;72.58
66479;BME280;53294;47.912;13.526;2023-01-29T06:08:04;97062.97;;;-0.60;72.57
66479;BME280;53294;47.912;13.526;2023-01-29T06:10:31;97059.91;;;-0.64;72.19
66479;BME280;53294;47.912;13.526;2023-01-29T06:12:57;97059.91;;;-0.50;71.71
66479;BME280;53294;47.912;13.526;2023-01-29T06:15:24;97064.38;;;-0.31;70.88
66479;BME280;53294;47.912;13.526;2023-01-29T06:17:55;97069.84;;;-0.12;70.07
66479;BME280;53294;47.912;13.526;2023-01-29T06:20:23;97074.72;;;-0.09;69.39
66479;BME280;53294;47.912;13.526;2023-01-29T06:22:49;97074.31;;;0.01;69.12
66479;BME280;53294;47.912;13.526;2023-01-29T06:25:16;97073.50;;;0.00;68.51
66479;BME280;53294;47.912;13.526;2023-01-29T06:27:43;97068.22;;;0.00;68.03
66479;BME280;53294;47.912;13.526;2023-01-29T06:30:10;97062.09;;;-0.01;67.88
66479;BME280;53294;47.912;13.526;2023-01-29T06:32:37;97075.16;;;-0.52;69.21
66479;BME280;53294;47.912;13.526;2023-01-29T06:35:04;97065.38;;;-0.45;68.01
66479;BME280;53294;47.912;13.526;2023-01-29T06:37:30;97069.88;;;-0.32;67.59
66479;BME280;53294;47.912;13.526;2023-01-29T06:39:57;97069.44;;;-0.36;67.65
66479;BME280;53294;47.912;13.526;2023-01-29T06:42:24;97067.81;;;-0.24;67.36
66479;BME280;53294;47.912;13.526;2023-01-29T06:44:56;97076.34;;;-0.08;67.18
66479;BME280;53294;47.912;13.526;2023-01-29T06:47:23;97074.06;;;0.09;66.78
66479;BME280;53294;47.912;13.526;2023-01-29T06:49:50;97072.81;;;0.25;66.55
66479;BME280;53294;47.912;13.526;2023-01-29T06:52:17;97076.66;;;0.42;66.06
66479;BME280;53294;47.912;13.526;2023-01-29T06:54:44;97078.25;;;0.50;65.75
66479;BME280;53294;47.912;13.526;2023-01-29T06:57:11;97071.09;;;0.57;65.72
66479;BME280;53294;47.912;13.526;2023-01-29T06:59:37;97064.97;;;0.63;65.75
66479;BME280;53294;47.912;13.526;2023-01-29T07:02:04;97061.47;;;0.69;65.53
66479;BME280;53294;47.912;13.526;2023-01-29T07:04:31;97073.09;;;0.62;65.52
66479;BME280;53294;47.912;13.526;2023-01-29T07:06:58;97076.56;;;0.62;65.39
66479;BME280;53294;47.912;13.526;2023-01-29T07:09:25;97069.53;;;0.43;65.88
66479;BME280;53294;47.912;13.526;2023-01-29T07:11:51;97066.00;;;0.56;65.71
66479;BME280;53294;47.912;13.526;2023-01-29T07:14:18;97066.06;;;0.42;65.63
66479;BME280;53294;47.912;13.526;2023-01-29T07:16:45;97069.31;;;0.44;65.76
66479;BME280;53294;47.912;13.526;2023-01-29T07:19:12;97061.19;;;0.39;66.10
66479;BME280;53294;47.912;13.526;2023-01-29T07:21:38;97064.78;;;0.58;65.79
66479;BME280;53294;47.912;13.526;2023-01-29T07:24:05;97067.59;;;0.70;65.35
66479;BME280;53294;47.912;13.526;2023-01-29T07:26:32;97069.16;;;0.78;65.23
66479;BME280;53294;47.912;13.526;2023-01-29T07:28:59;97072.00;;;0.76;65.43
66479;BME280;53294;47.912;13.526;2023-01-29T07:31:25;97067.50;;;0.83;65.46
66479;BME280;53294;47.912;13.526;2023-01-29T07:33:52;97072.00;;;0.76;65.23
66479;BME280;53294;47.912;13.526;2023-01-29T07:36:19;97072.19;;;0.29;66.26
66479;BME280;53294;47.912;13.526;2023-01-29T07:38:49;97071.84;;;0.06;65.95
66479;BME280;53294;47.912;13.526;2023-01-29T07:41:16;97072.31;;;-0.31;66.36
66479;BME280;53294;47.912;13.526;2023-01-29T07:43:43;97073.09;;;-0.10;66.55
66479;BME280;53294;47.912;13.526;2023-01-29T07:46:09;97065.69;;;0.32;65.76
66479;BME280;53294;47.912;13.526;2023-01-29T07:48:36;97063.19;;;0.50;65.73
66479;BME280;53294;47.912;13.526;2023-01-29T07:51:03;97057.22;;;0.62;65.50
66479;BME280;53294;47.912;13.526;2023-01-29T07:53:30;97057.53;;;0.40;65.39
66479;BME280;53294;47.912;13.526;2023-01-29T07:55:56;97062.38;;;0.43;65.59
66479;BME280;53294;47.912;13.526;2023-01-29T07:58:23;97060.50;;;0.64;65.31
66479;BME280;53294;47.912;13.526;2023-01-29T08:00:50;97057.34;;;0.80;64.86
66479;BME280;53294;47.912;13.526;2023-01-29T08:03:17;97049.88;;;1.09;64.44
66479;BME280;53294;47.912;13.526;2023-01-29T08:05:46;97042.09;;;1.14;64.60
66479;BME280;53294;47.912;13.526;2023-01-29T08:08:13;97038.94;;;1.31;64.41
66479;BME280;53294;47.912;13.526;2023-01-29T08:10:40;97041.59;;;1.31;63.70
66479;BME280;53294;47.912;13.526;2023-01-29T08:13:07;97033.00;;;1.35;63.62
66479;BME280;53294;47.912;13.526;2023-01-29T08:15:34;97035.09;;;1.27;63.73
66479;BME280;53294;47.912;13.526;2023-01-29T08:18:04;97035.00;;;1.08;64.29
66479;BME280;53294;47.912;13.526;2023-01-29T08:20:31;97042.97;;;1.08;63.83
66479;BME280;53294;47.912;13.526;2023-01-29T08:23:02;97035.59;;;1.10;63.73
66479;BME280;53294;47.912;13.526;2023-01-29T08:25:30;97041.91;;;1.41;63.71
66479;BME280;53294;47.912;13.526;2023-01-29T08:27:57;97047.69;;;1.56;63.26
66479;BME280;53294;47.912;13.526;2023-01-29T08:30:26;97046.00;;;1.87;63.20
66479;BME280;53294;47.912;13.526;2023-01-29T08:32:54;97050.22;;;2.13;62.78
66479;BME280;53294;47.912;13.526;2023-01-29T08:35:21;97056.34;;;2.14;61.07
66479;BME280;53294;47.912;13.526;2023-01-29T08:37:54;97068.25;;;2.05;62.01
66479;BME280;53294;47.912;13.526;2023-01-29T08:40:22;97068.56;;;2.15;62.00
66479;BME280;53294;47.912;13.526;2023-01-29T08:42:48;97060.41;;;2.17;61.78
66479;BME280;53294;47.912;13.526;2023-01-29T08:45:15;97061.19;;;2.17;61.04
66479;BME280;53294;47.912;13.526;2023-01-29T08:47:48;97066.13;;;2.13;60.95
66479;BME280;53294;47.912;13.526;2023-01-29T08:50:16;97073.28;;;2.31;61.32
66479;BME280;53294;47.912;13.526;2023-01-29T08:52:44;97077.25;;;2.04;60.93
66479;BME280;53294;47.912;13.526;2023-01-29T08:55:12;97082.84;;;2.14;62.04
66479;BME280;53294;47.912;13.526;2023-01-29T08:57:38;97089.91;;;2.02;61.66
66479;BME280;53294;47.912;13.526;2023-01-29T09:00:06;97096.34;;;1.87;62.10
66479;BME280;53294;47.912;13.526;2023-01-29T09:02:34;97087.94;;;2.15;62.47
66479;BME280;53294;47.912;13.526;2023-01-29T09:05:01;97092.88;;;2.30;62.02
66479;BME280;53294;47.912;13.526;2023-01-29T09:07:28;97096.47;;;2.36;61.68
66479;BME280;53294;47.912;13.526;2023-01-29T09:09:55;97099.22;;;2.48;61.45
66479;BME280;53294;47.912;13.526;2023-01-29T09:12:22;97108.06;;;2.60;61.37
66479;BME280;53294;47.912;13.526;2023-01-29T09:14:48;97111.59;;;2.54;61.26
66479;BME280;53294;47.912;13.526;2023-01-29T09:17:15;97114.56;;;2.46;61.47
66479;BME280;53294;47.912;13.526;2023-01-29T09:19:41;97104.66;;;2.72;61.51
66479;BME280;53294;47.912;13.526;2023-01-29T09:22:08;97097.38;;;2.67;60.77
66479;BME280;53294;47.912;13.526;2023-01-29T09:24:37;97102.31;;;2.82;60.94
66479;BME280;53294;47.912;13.526;2023-01-29T09:27:03;97107.28;;;2.60;61.22
66479;BME280;53294;47.912;13.526;2023-01-29T09:29:31;97096.25;;;2.75;61.05
66479;BME280;53294;47.912;13.526;2023-01-29T09:32:03;97103.63;;;2.91;60.81
66479;BME280;53294;47.912;13.526;2023-01-29T09:34:30;97106.69;;;3.07;60.79
66479;BME280;53294;47.912;13.526;2023-01-29T09:36:56;97111.56;;;3.10;59.76
66479;BME280;53294;47.912;13.526;2023-01-29T09:39:23;97104.97;;;2.63;60.77
66479;BME280;53294;47.912;13.526;2023-01-29T09:44:48;97100.41;;;2.33;60.83
66479;BME280;53294;47.912;13.526;2023-01-29T09:47:23;97104.53;;;2.48;59.94
66479;BME280;53294;47.912;13.526;2023-01-29T09:52:32;97108.59;;;1.56;58.80
66479;BME280;53294;47.912;13.526;2023-01-29T09:55:26;97113.41;;;1.09;59.90
66479;BME280;53294;47.912;13.526;2023-01-29T09:57:58;97113.19;;;1.11;60.18
66479;BME280;53294;47.912;13.526;2023-01-29T10:06:04;97120.06;;;1.18;60.38
66479;BME280;53294;47.912;13.526;2023-01-29T10:09:01;97120.41;;;1.60;60.27
66479;BME280;53294;47.912;13.526;2023-01-29T10:11:56;97128.16;;;1.87;60.70
66479;BME280;53294;47.912;13.526;2023-01-29T10:25:29;97127.41;;;2.05;60.19
66479;BME280;53294;47.912;13.526;2023-01-29T10:27:59;97131.53;;;2.20;59.72
66479;BME280;53294;47.912;13.526;2023-01-29T10:30:33;97137.34;;;2.28;58.56
66479;BME280;53294;47.912;13.526;2023-01-29T10:33:05;97138.28;;;2.15;59.77
66479;BME280;53294;47.912;13.526;2023-01-29T10:35:42;97142.91;;;2.02;59.78
66479;BME280;53294;47.912;13.526;2023-01-29T10:38:23;97136.78;;;2.01;60.28
66479;BME280;53294;47.912;13.526;2023-01-29T10:57:54;97103.19;;;2.20;58.71
66479;BME280;53294;47.912;13.526;2023-01-29T11:00:37;97107.69;;;2.20;59.19
66479;BME280;53294;47.912;13.526;2023-01-29T11:03:21;97098.91;;;2.38;58.80
66479;BME280;53294;47.912;13.526;2023-01-29T11:11:38;97082.56;;;2.41;58.11
66479;BME280;53294;47.912;13.526;2023-01-29T11:14:12;97073.88;;;2.15;58.81
66479;BME280;53294;47.912;13.526;2023-01-29T11:16:43;97080.13;;;2.02;59.47
66479;BME280;53294;47.912;13.526;2023-01-29T11:19:11;97073.38;;;1.81;59.31
66479;BME280;53294;47.912;13.526;2023-01-29T11:21:58;97066.22;;;1.82;59.07
66479;BME280;53294;47.912;13.526;2023-01-29T11:24:26;97060.97;;;2.00;58.99
66479;BME280;53294;47.912;13.526;2023-01-29T11:26:58;97058.66;;;1.85;59.18
66479;BME280;53294;47.912;13.526;2023-01-29T11:29:40;97045.88;;;2.01;59.73
66479;BME280;53294;47.912;13.526;2023-01-29T11:32:29;97050.06;;;2.27;58.74
66479;BME280;53294;47.912;13.526;2023-01-29T11:37:45;97044.63;;;2.03;58.30
66479;BME280;53294;47.912;13.526;2023-01-29T11:42:45;97044.13;;;2.13;58.73
66479;BME280;53294;47.912;13.526;2023-01-29T11:45:24;97039.72;;;2.07;58.84
66479;BME280;53294;47.912;13.526;2023-01-29T11:47:53;97038.44;;;2.09;58.61
66479;BME280;53294;47.912;13.526;2023-01-29T11:50:32;97030.28;;;2.29;57.92
66479;BME280;53294;47.912;13.526;2023-01-29T11:52:59;97030.72;;;2.26;57.47
66479;BME280;53294;47.912;13.526;2023-01-29T11:55:34;97025.34;;;2.14;58.00
66479;BME280;53294;47.912;13.526;2023-01-29T11:58:26;97023.72;;;2.13;57.69
66479;BME280;53294;47.912;13.526;2023-01-29T12:00:56;97016.88;;;2.06;57.65
66479;BME280;53294;47.912;13.526;2023-01-29T12:03:38;97008.19;;;2.17;57.59
66479;BME280;53294;47.912;13.526;2023-01-29T12:06:23;97011.63;;;2.36;57.30
66479;BME280;53294;47.912;13.526;2023-01-29T12:08:58;97004.06;;;2.21;56.77
66479;BME280;53294;47.912;13.526;2023-01-29T12:11:33;97003.03;;;2.04;57.20
66479;BME280;53294;47.912;13.526;2023-01-29T12:14:03;97000.22;;;1.98;58.18
66479;BME280;53294;47.912;13.526;2023-01-29T12:16:51;96999.97;;;2.07;57.87
66479;BME280;53294;47.912;13.526;2023-01-29T12:19:48;96995.16;;;2.15;58.64
66479;BME280;53294;47.912;13.526;2023-01-29T12:22:24;96985.06;;;2.06;58.13
66479;BME280;53294;47.912;13.526;2023-01-29T12:25:15;96985.44;;;2.09;57.60
66479;BME280;53294;47.912;13.526;2023-01-29T12:27:55;96979.41;;;2.02;57.54
66479;BME280;53294;47.912;13.526;2023-01-29T12:30:28;96977.69;;;2.08;58.07
66479;BME280;53294;47.912;13.526;2023-01-29T12:36:47;96971.25;;;2.04;57.74
66479;BME280;53294;47.912;13.526;2023-01-29T12:38:47;96971.81;;;2.24;58.23
66479;BME280;53294;47.912;13.526;2023-01-29T12:44:09;96951.50;;;2.48;56.91
66479;BME280;53294;47.912;13.526;2023-01-29T12:46:45;96951.16;;;2.45;57.67
66479;BME280;53294;47.912;13.526;2023-01-29T12:49:19;96951.16;;;2.45;57.63
66479;BME280;53294;47.912;13.526;2023-01-29T12:51:55;96944.50;;;2.24;57.66
66479;BME280;53294;47.912;13.526;2023-01-29T12:54:35;96941.34;;;2.15;57.27
66479;BME280;53294;47.912;13.526;2023-01-29T12:57:08;96944.03;;;2.27;57.50
66479;BME280;53294;47.912;13.526;2023-01-29T12:59:43;96931.16;;;2.30;56.87
66479;BME280;53294;47.912;13.526;2023-01-29T13:02:14;96926.41;;;2.32;57.47
66479;BME280;53294;47.912;13.526;2023-01-29T13:04:58;96922.44;;;2.42;57.06
66479;BME280;53294;47.912;13.526;2023-01-29T13:07:37;96917.28;;;2.28;57.36
66479;BME280;53294;47.912;13.526;2023-01-29T13:10:13;96914.91;;;2.39;57.92
66479;BME280;53294;47.912;13.526;2023-01-29T13:12:52;96917.47;;;2.45;56.84
66479;BME280;53294;47.912;13.526;2023-01-29T13:15:25;96905.28;;;2.44;57.49
66479;BME280;53294;47.912;13.526;2023-01-29T13:18:06;96912.41;;;2.44;57.73
66479;BME280;53294;47.912;13.526;2023-01-29T13:20:39;96901.63;;;2.57;57.30
66479;BME280;53294;47.912;13.526;2023-01-29T13:23:21;96902.09;;;2.66;57.40
66479;BME280;53294;47.912;13.526;2023-01-29T13:25:52;96896.75;;;2.54;56.97
66479;BME280;53294;47.912;13.526;2023-01-29T13:28:22;96897.09;;;2.46;56.79
66479;BME280;53294;47.912;13.526;2023-01-29T13:33:37;96892.81;;;2.45;56.97
66479;BME280;53294;47.912;13.526;2023-01-29T13:36:13;96888.38;;;2.69;57.20
66479;BME280;53294;47.912;13.526;2023-01-29T13:38:42;96878.38;;;2.83;56.87
66479;BME280;53294;47.912;13.526;2023-01-29T13:41:10;96883.31;;;2.67;56.42
66479;BME280;53294;47.912;13.526;2023-01-29T13:43:40;96883.63;;;2.59;57.14
66479;BME280;53294;47.912;13.526;2023-01-29T13:46:11;96872.03;;;2.84;56.98
66479;BME280;53294;47.912;13.526;2023-01-29T13:48:45;96879.31;;;3.00;57.12
66479;BME280;53294;47.912;13.526;2023-01-29T13:51:16;96877.94;;;3.10;56.20
66479;BME280;53294;47.912;13.526;2023-01-29T13:54:01;96884.28;;;2.97;56.53
66479;BME280;53294;47.912;13.526;2023-01-29T13:56:42;96885.91;;;3.21;56.76
66479;BME280;53294;47.912;13.526;2023-01-29T13:59:54;96893.28;;;3.08;56.73
66479;BME280;53294;47.912;13.526;2023-01-29T14:02:28;96883.03;;;3.11;56.22
66479;BME280;53294;47.912;13.526;2023-01-29T14:10:29;96883.91;;;2.93;56.80
66479;BME280;53294;47.912;13.526;2023-01-29T14:15:35;96873.22;;;3.00;57.03
66479;BME280;53294;47.912;13.526;2023-01-29T14:18:12;96875.97;;;3.05;57.13
66479;BME280;53294;47.912;13.526;2023-01-29T14:20:50;96870.28;;;3.01;56.90
66479;BME280;53294;47.912;13.526;2023-01-29T14:29:16;96865.56;;;2.80;56.96
66479;BME280;53294;47.912;13.526;2023-01-29T14:32:20;96864.47;;;2.57;57.08
66479;BME280;53294;47.912;13.526;2023-01-29T14:34:57;96865.72;;;2.43;58.15
66479;BME280;53294;47.912;13.526;2023-01-29T14:37:38;96870.22;;;2.54;57.95
66479;BME280;53294;47.912;13.526;2023-01-29T14:40:18;96862.09;;;2.25;57.84
66479;BME280;53294;47.912;13.526;2023-01-29T14:43:00;96864.41;;;2.33;58.78
66479;BME280;53294;47.912;13.526;2023-01-29T14:45:34;96859.28;;;2.20;58.10
66479;BME280;53294;47.912;13.526;2023-01-29T14:50:44;96856.69;;;2.32;58.41
66479;BME280;53294;47.912;13.526;2023-01-29T14:53:26;96856.84;;;2.49;57.27
66479;BME280;53294;47.912;13.526;2023-01-29T14:58:35;96860.97;;;2.45;57.48
66479;BME280;53294;47.912;13.526;2023-01-29T15:01:16;96851.56;;;2.49;57.46
66479;BME280;53294;47.912;13.526;2023-01-29T15:03:57;96843.97;;;2.64;57.31
66479;BME280;53294;47.912;13.526;2023-01-29T15:06:38;96849.00;;;2.54;56.94
66479;BME280;53294;47.912;13.526;2023-01-29T15:09:23;96849.47;;;2.51;56.75
66479;BME280;53294;47.912;13.526;2023-01-29T15:12:11;96856.94;;;2.42;57.56
66479;BME280;53294;47.912;13.526;2023-01-29T15:18:07;96851.97;;;2.04;57.59
66479;BME280;53294;47.912;13.526;2023-01-29T15:20:36;96853.91;;;1.96;58.23
66479;BME280;53294;47.912;13.526;2023-01-29T15:23:30;96859.56;;;2.00;58.34
66479;BME280;53294;47.912;13.526;2023-01-29T15:25:59;96854.88;;;1.84;58.54